Time;durP1;ratioP1;P1;durP2;ratioP2;P2;SDS_P1;SDS_P2;PMS_P1;PMS_P2;Temp;Humidity;BMP_temperature;BMP_pressure;BME280_temperature;BME280_humidity;BME280_pressure;Samples;Min_cycle;Max_cycle;Signal;HPM_P1;HPM_P2
2023/12/10 00:02:13;;;;;;;19.10;9.38;;;;;;;;;;4975119;28;20070;-69
2023/12/10 00:04:39;;;;;;;17.73;9.80;;;;;;;;;;4976379;28;20502;-68
2023/12/10 00:07:05;;;;;;;18.83;9.90;;;;;;;;;;4976364;28;20105;-69
2023/12/10 00:09:31;;;;;;;16.45;10.05;;;;;;;;;;4976214;28;20495;-69
2023/12/10 00:11:56;;;;;;;14.50;9.25;;;;;;;;;;4976170;28;20047;-69
2023/12/10 00:14:24;;;;;;;15.02;9.52;;;;;;;;;;4976544;28;20042;-69
2023/12/10 00:16:50;;;;;;;21.60;9.30;;;;;;;;;;4976416;28;20023;-69
2023/12/10 00:19:15;;;;;;;15.40;9.43;;;;;;;;;;4976467;28;20101;-68
2023/12/10 00:21:41;;;;;;;21.20;9.93;;;;;;;;;;4976476;28;20633;-69
2023/12/10 00:24:06;;;;;;;19.92;9.90;;;;;;;;;;4976298;28;20476;-71
2023/12/10 00:26:32;;;;;;;17.90;9.30;;;;;;;;;;4976166;28;20023;-70
2023/12/10 00:28:57;;;;;;;18.00;9.07;;;;;;;;;;4974920;28;20118;-69
2023/12/10 00:31:23;;;;;;;15.10;9.40;;;;;;;;;;4976081;28;20031;-70
2023/12/10 00:33:48;;;;;;;17.25;9.50;;;;;;;;;;4975874;28;20030;-70
2023/12/10 00:36:15;;;;;;;16.80;9.68;;;;;;;;;;4975851;28;20081;-70
2023/12/10 00:38:42;;;;;;;16.70;8.73;;;;;;;;;;4976066;28;20031;-70
2023/12/10 00:41:10;;;;;;;14.43;9.15;;;;;;;;;;4975684;28;20038;-70
2023/12/10 00:43:37;;;;;;;14.07;9.18;;;;;;;;;;4975955;28;20053;-70
2023/12/10 00:46:02;;;;;;;18.80;9.52;;;;;;;;;;4975912;28;20035;-70
2023/12/10 00:48:28;;;;;;;15.27;9.50;;;;;;;;;;4975339;28;20023;-70
2023/12/10 00:50:54;;;;;;;17.00;9.85;;;;;;;;;;4975436;28;20498;-69
2023/12/10 00:53:20;;;;;;;14.45;9.48;;;;;;;;;;4972597;28;20039;-70
2023/12/10 00:55:46;;;;;;;16.42;9.43;;;;;;;;;;4973352;28;20037;-70
2023/12/10 00:58:13;;;;;;;15.60;9.40;;;;;;;;;;4973663;28;20061;-70
2023/12/10 01:00:40;;;;;;;17.50;9.70;;;;;;;;;;4972054;28;20073;-70
2023/12/10 01:03:06;;;;;;;17.33;9.55;;;;;;;;;;4964959;28;20097;-70
2023/12/10 01:05:32;;;;;;;19.33;9.50;;;;;;;;;;4969058;28;20019;-70
2023/12/10 01:07:58;;;;;;;15.48;9.80;;;;;;;;;;4970640;28;20545;-70
2023/12/10 01:10:23;;;;;;;18.20;10.00;;;;;;;;;;4969774;28;20038;-70
2023/12/10 01:12:49;;;;;;;17.35;10.65;;;;;;;;;;4964314;28;20047;-70
2023/12/10 01:15:14;;;;;;;16.67;10.10;;;;;;;;;;4954386;28;20042;-70
2023/12/10 01:17:40;;;;;;;17.48;10.60;;;;;;;;;;4956097;29;20027;-70
2023/12/10 01:20:06;;;;;;;18.90;9.90;;;;;;;;;;4955800;28;20042;-70
2023/12/10 01:22:31;;;;;;;16.52;10.15;;;;;;;;;;4955782;28;20027;-70
2023/12/10 01:24:58;;;;;;;17.42;10.25;;;;;;;;;;4955976;28;20043;-68
2023/12/10 01:27:23;;;;;;;18.52;9.93;;;;;;;;;;4959117;28;20052;-70
2023/12/10 01:29:49;;;;;;;16.23;10.40;;;;;;;;;;4972438;28;20031;-69
2023/12/10 01:32:15;;;;;;;21.05;9.73;;;;;;;;;;4971913;28;20387;-69
2023/12/10 01:34:44;;;;;;;16.80;9.20;;;;;;;;;;4971996;28;20027;-69
2023/12/10 01:37:10;;;;;;;15.48;9.13;;;;;;;;;;4970191;28;20034;-69
2023/12/10 01:39:36;;;;;;;16.55;9.23;;;;;;;;;;4972400;28;20034;-69
2023/12/10 01:42:03;;;;;;;19.38;9.10;;;;;;;;;;4972614;28;20027;-69
2023/12/10 01:44:30;;;;;;;14.15;9.02;;;;;;;;;;4969832;28;20517;-69
2023/12/10 01:46:56;;;;;;;15.95;8.73;;;;;;;;;;4972392;28;20034;-69
2023/12/10 01:49:23;;;;;;;14.57;9.00;;;;;;;;;;4969052;28;20105;-69
2023/12/10 01:51:49;;;;;;;16.05;9.18;;;;;;;;;;4972598;28;20019;-69
2023/12/10 01:54:23;;;;;;;19.40;9.23;;;;;;;;;;4971837;28;20034;-69
2023/12/10 01:56:50;;;;;;;15.18;8.90;;;;;;;;;;4972349;28;20471;-69
2023/12/10 01:59:19;;;;;;;18.75;9.38;;;;;;;;;;4973364;28;20019;-68
2023/12/10 02:01:48;;;;;;;17.33;9.65;;;;;;;;;;4974673;28;20539;-69
2023/12/10 02:04:17;;;;;;;15.40;9.13;;;;;;;;;;4974730;28;20077;-69
2023/12/10 02:06:44;;;;;;;18.45;8.95;;;;;;;;;;4973575;28;20026;-69
2023/12/10 02:09:12;;;;;;;15.18;9.10;;;;;;;;;;4973692;28;20533;-69
2023/12/10 02:11:39;;;;;;;14.65;8.90;;;;;;;;;;4973131;28;20081;-69
2023/12/10 02:14:04;;;;;;;14.70;8.90;;;;;;;;;;4974127;28;20708;-69
2023/12/10 02:16:31;;;;;;;15.93;8.82;;;;;;;;;;4973270;28;20102;-69
2023/12/10 02:18:56;;;;;;;16.50;9.07;;;;;;;;;;4974270;28;20045;-69
2023/12/10 02:21:24;;;;;;;13.85;8.65;;;;;;;;;;4974071;28;20472;-69
2023/12/10 02:24:01;;;;;;;13.95;8.30;;;;;;;;;;4973769;28;20535;-69
2023/12/10 02:26:27;;;;;;;16.58;8.80;;;;;;;;;;4974225;28;20031;-69
2023/12/10 02:28:53;;;;;;;13.60;8.77;;;;;;;;;;4973913;28;20043;-69
2023/12/10 02:31:19;;;;;;;15.55;9.02;;;;;;;;;;4973914;28;20029;-69
2023/12/10 02:33:45;;;;;;;13.63;8.40;;;;;;;;;;4973920;28;20022;-69
2023/12/10 02:36:14;;;;;;;16.08;8.48;;;;;;;;;;4974180;28;20027;-69
2023/12/10 02:38:40;;;;;;;14.25;8.60;;;;;;;;;;4972532;28;20047;-69
2023/12/10 02:41:05;;;;;;;17.23;9.40;;;;;;;;;;4974038;28;20498;-69
2023/12/10 02:43:31;;;;;;;14.40;8.75;;;;;;;;;;4973752;28;20562;-69
2023/12/10 02:45:57;;;;;;;14.00;8.10;;;;;;;;;;4973639;28;20135;-69
2023/12/10 02:48:23;;;;;;;13.75;9.15;;;;;;;;;;4973637;28;20034;-69
2023/12/10 02:50:49;;;;;;;14.20;8.27;;;;;;;;;;4973984;28;20027;-69
2023/12/10 02:53:15;;;;;;;14.20;8.43;;;;;;;;;;4973611;28;20033;-69
2023/12/10 02:55:41;;;;;;;15.35;8.40;;;;;;;;;;4973560;28;20111;-68
2023/12/10 02:58:07;;;;;;;13.00;8.38;;;;;;;;;;4973897;28;20030;-69
2023/12/10 03:00:32;;;;;;;14.15;8.20;;;;;;;;;;4973873;28;20361;-69
2023/12/10 03:03:01;;;;;;;14.48;9.20;;;;;;;;;;4973986;28;20134;-69
2023/12/10 03:05:26;;;;;;;13.90;8.70;;;;;;;;;;4973889;28;20423;-69
2023/12/10 03:07:53;;;;;;;14.35;8.52;;;;;;;;;;4973704;28;20061;-68
2023/12/10 03:10:19;;;;;;;14.45;8.65;;;;;;;;;;4973395;28;20038;-68
2023/12/10 03:12:44;;;;;;;17.42;8.70;;;;;;;;;;4973360;28;20051;-68
2023/12/10 03:15:10;;;;;;;15.18;8.60;;;;;;;;;;4973389;28;20093;-68
2023/12/10 03:17:36;;;;;;;14.43;8.50;;;;;;;;;;4973697;28;20082;-69
2023/12/10 03:20:03;;;;;;;14.18;8.63;;;;;;;;;;4973666;28;20027;-69
2023/12/10 03:22:29;;;;;;;15.20;8.43;;;;;;;;;;4973397;28;20030;-69
2023/12/10 03:24:54;;;;;;;13.18;8.05;;;;;;;;;;4973772;28;20031;-69
2023/12/10 03:27:20;;;;;;;11.88;7.85;;;;;;;;;;4973273;28;20383;-68
2023/12/10 03:29:45;;;;;;;15.30;8.60;;;;;;;;;;4973162;28;20134;-68
2023/12/10 03:32:11;;;;;;;13.02;7.93;;;;;;;;;;4973263;28;20046;-69
2023/12/10 03:34:36;;;;;;;15.10;8.35;;;;;;;;;;4973311;28;20027;-68
2023/12/10 03:37:02;;;;;;;13.70;8.77;;;;;;;;;;4975131;28;20038;-68
2023/12/10 03:39:28;;;;;;;15.90;9.85;;;;;;;;;;4977364;28;20094;-68
2023/12/10 03:41:53;;;;;;;14.57;8.77;;;;;;;;;;4977032;28;20369;-69
2023/12/10 03:44:19;;;;;;;13.20;8.23;;;;;;;;;;4976850;28;20019;-68
2023/12/10 03:46:44;;;;;;;13.38;8.18;;;;;;;;;;4977071;28;20027;-69
2023/12/10 03:49:10;;;;;;;15.02;8.45;;;;;;;;;;4976614;28;20122;-68
2023/12/10 03:51:35;;;;;;;13.15;8.82;;;;;;;;;;4976734;28;20027;-68
2023/12/10 03:54:01;;;;;;;12.48;8.38;;;;;;;;;;4976633;28;20031;-68
2023/12/10 03:56:27;;;;;;;12.93;7.95;;;;;;;;;;4976650;28;20039;-68
2023/12/10 03:58:53;;;;;;;15.32;8.48;;;;;;;;;;4976861;28;20026;-68
2023/12/10 04:01:18;;;;;;;12.82;8.18;;;;;;;;;;4976625;28;20387;-69
2023/12/10 04:03:44;;;;;;;12.73;8.27;;;;;;;;;;4976480;28;20038;-69
2023/12/10 04:06:09;;;;;;;13.23;8.05;;;;;;;;;;4976803;28;20035;-69
2023/12/10 04:08:35;;;;;;;13.45;8.32;;;;;;;;;;4976401;28;20238;-69
2023/12/10 04:11:00;;;;;;;13.25;8.30;;;;;;;;;;4976227;28;20062;-68
2023/12/10 04:13:26;;;;;;;12.43;8.18;;;;;;;;;;4976409;28;20030;-69
2023/12/10 04:15:51;;;;;;;12.82;7.57;;;;;;;;;;4976288;28;20015;-69
2023/12/10 04:18:17;;;;;;;13.50;8.60;;;;;;;;;;4976487;28;20517;-69
2023/12/10 04:20:43;;;;;;;13.23;7.93;;;;;;;;;;4976473;28;20034;-68
2023/12/10 04:23:09;;;;;;;11.90;7.95;;;;;;;;;;4976238;28;20027;-68
2023/12/10 04:25:35;;;;;;;14.35;8.95;;;;;;;;;;4976445;28;20093;-69
2023/12/10 04:28:01;;;;;;;12.63;8.05;;;;;;;;;;4976214;28;20407;-68
2023/12/10 04:30:26;;;;;;;13.65;8.07;;;;;;;;;;4975946;28;20476;-68
2023/12/10 04:32:55;;;;;;;12.93;7.50;;;;;;;;;;4976280;28;20022;-68
2023/12/10 04:35:20;;;;;;;13.88;8.10;;;;;;;;;;4975946;28;20420;-68
2023/12/10 04:37:46;;;;;;;11.02;7.47;;;;;;;;;;4976226;28;20039;-68
2023/12/10 04:40:12;;;;;;;14.95;8.32;;;;;;;;;;4975975;28;20495;-68
2023/12/10 04:42:41;;;;;;;11.30;7.57;;;;;;;;;;4975969;28;20031;-68
2023/12/10 04:45:08;;;;;;;13.18;7.60;;;;;;;;;;4975874;28;20368;-68
2023/12/10 04:47:37;;;;;;;14.00;8.32;;;;;;;;;;4975158;28;20515;-68
2023/12/10 04:50:03;;;;;;;11.68;7.90;;;;;;;;;;4975915;28;20038;-68
2023/12/10 04:52:32;;;;;;;13.68;7.78;;;;;;;;;;4976286;28;20027;-68
2023/12/10 04:55:00;;;;;;;11.70;7.63;;;;;;;;;;4975604;28;20109;-68
2023/12/10 04:57:26;;;;;;;12.38;8.35;;;;;;;;;;4975562;28;20178;-68
2023/12/10 04:59:52;;;;;;;13.50;7.97;;;;;;;;;;4975646;28;20788;-68
2023/12/10 05:02:17;;;;;;;13.55;8.35;;;;;;;;;;4975637;28;20120;-68
2023/12/10 05:04:43;;;;;;;10.55;7.93;;;;;;;;;;4975661;28;20029;-68
2023/12/10 05:07:09;;;;;;;11.23;7.38;;;;;;;;;;4975314;28;20387;-69
2023/12/10 05:09:35;;;;;;;11.65;7.43;;;;;;;;;;4975486;28;20030;-69
2023/12/10 05:12:01;;;;;;;11.23;6.90;;;;;;;;;;4975009;28;20043;-69
2023/12/10 05:14:26;;;;;;;11.05;7.57;;;;;;;;;;4975455;28;20058;-68
2023/12/10 05:16:52;;;;;;;11.80;7.65;;;;;;;;;;4975544;28;20385;-68
2023/12/10 05:19:17;;;;;;;15.68;8.68;;;;;;;;;;4975387;28;20471;-69
2023/12/10 05:21:43;;;;;;;12.32;7.32;;;;;;;;;;4975355;28;20234;-69
2023/12/10 05:24:08;;;;;;;12.32;7.43;;;;;;;;;;4975013;28;20074;-68
2023/12/10 05:26:34;;;;;;;12.98;7.68;;;;;;;;;;4975014;28;20110;-68
2023/12/10 05:28:59;;;;;;;10.25;7.35;;;;;;;;;;4974901;28;20042;-68
2023/12/10 05:31:25;;;;;;;10.70;7.45;;;;;;;;;;4975123;28;20158;-68
2023/12/10 05:33:50;;;;;;;12.90;7.65;;;;;;;;;;4973807;28;20491;-68
2023/12/10 05:36:16;;;;;;;12.23;7.20;;;;;;;;;;4975097;28;20027;-68
2023/12/10 05:38:42;;;;;;;9.55;6.90;;;;;;;;;;4975112;28;20103;-68
2023/12/10 05:41:07;;;;;;;10.65;6.93;;;;;;;;;;4975016;28;20455;-69
2023/12/10 05:43:33;;;;;;;11.93;7.60;;;;;;;;;;4974787;28;20031;-68
2023/12/10 05:45:58;;;;;;;12.32;7.35;;;;;;;;;;4975330;28;20067;-68
2023/12/10 05:48:24;;;;;;;12.35;7.68;;;;;;;;;;4974917;28;20499;-68
2023/12/10 05:50:49;;;;;;;11.38;7.38;;;;;;;;;;4974716;28;20379;-69
2023/12/10 05:53:15;;;;;;;10.98;6.72;;;;;;;;;;4974847;28;20038;-69
2023/12/10 05:55:40;;;;;;;11.05;7.25;;;;;;;;;;4974789;28;20464;-69
2023/12/10 05:58:06;;;;;;;12.48;7.97;;;;;;;;;;4974462;28;20390;-69
2023/12/10 06:00:32;;;;;;;9.93;7.35;;;;;;;;;;4973614;28;20033;-69
2023/12/10 06:02:57;;;;;;;12.27;7.45;;;;;;;;;;4974586;28;20080;-69
2023/12/10 06:05:23;;;;;;;11.48;7.18;;;;;;;;;;4974767;28;20026;-68
2023/12/10 06:07:48;;;;;;;10.05;7.10;;;;;;;;;;4974502;28;20495;-68
2023/12/10 06:10:14;;;;;;;10.50;7.03;;;;;;;;;;4975150;28;20109;-69
2023/12/10 06:12:39;;;;;;;9.15;6.45;;;;;;;;;;4974023;28;20549;-69
2023/12/10 06:15:05;;;;;;;10.07;7.05;;;;;;;;;;4974284;28;20033;-68
2023/12/10 06:17:31;;;;;;;11.27;7.13;;;;;;;;;;4974097;28;20468;-69
2023/12/10 06:19:56;;;;;;;10.73;7.15;;;;;;;;;;4974243;28;20498;-69
2023/12/10 06:22:22;;;;;;;11.02;7.05;;;;;;;;;;4973923;28;20037;-68
2023/12/10 06:24:49;;;;;;;10.18;7.05;;;;;;;;;;4974028;28;20031;-68
2023/12/10 06:27:14;;;;;;;10.00;7.05;;;;;;;;;;4974383;28;20480;-68
2023/12/10 06:29:41;;;;;;;11.45;7.25;;;;;;;;;;4974001;28;20109;-68
2023/12/10 06:32:06;;;;;;;10.18;7.15;;;;;;;;;;4974288;28;20130;-69
2023/12/10 06:34:32;;;;;;;10.15;6.78;;;;;;;;;;4973808;28;20472;-68
2023/12/10 06:36:57;;;;;;;12.32;6.88;;;;;;;;;;4974100;28;20027;-69
2023/12/10 06:39:23;;;;;;;10.85;6.85;;;;;;;;;;4973765;28;20041;-68
2023/12/10 06:41:48;;;;;;;9.77;6.72;;;;;;;;;;4973953;28;20121;-70
2023/12/10 06:44:21;;;;;;;10.27;6.50;;;;;;;;;;4973714;28;20033;-69
2023/12/10 06:46:47;;;;;;;10.00;6.63;;;;;;;;;;4974008;28;20392;-69
2023/12/10 06:49:13;;;;;;;10.55;6.70;;;;;;;;;;4973572;28;20034;-69
2023/12/10 06:51:38;;;;;;;10.23;7.10;;;;;;;;;;4973938;28;20030;-69
2023/12/10 06:54:04;;;;;;;9.75;6.82;;;;;;;;;;4974080;28;20019;-69
2023/12/10 06:56:29;;;;;;;10.45;6.90;;;;;;;;;;4973882;28;20074;-69
2023/12/10 06:58:55;;;;;;;8.15;5.93;;;;;;;;;;4973885;28;20015;-69
2023/12/10 07:01:21;;;;;;;13.07;7.30;;;;;;;;;;4973851;28;20026;-69
2023/12/10 07:03:46;;;;;;;9.65;6.50;;;;;;;;;;4973492;28;20045;-69
2023/12/10 07:06:12;;;;;;;8.32;6.07;;;;;;;;;;4973525;28;20030;-69
2023/12/10 07:08:37;;;;;;;9.18;6.35;;;;;;;;;;4973811;28;20034;-69
2023/12/10 07:11:05;;;;;;;10.23;6.57;;;;;;;;;;4975219;28;20612;-69
2023/12/10 07:13:30;;;;;;;8.68;6.22;;;;;;;;;;4977688;28;20495;-69
2023/12/10 07:15:56;;;;;;;10.55;6.63;;;;;;;;;;4977322;28;20118;-69
2023/12/10 07:18:21;;;;;;;8.35;5.75;;;;;;;;;;4977657;28;20105;-69
2023/12/10 07:20:47;;;;;;;9.80;6.03;;;;;;;;;;4977270;28;20030;-70
2023/12/10 07:23:13;;;;;;;7.88;5.88;;;;;;;;;;4977764;28;20057;-70
2023/12/10 07:25:38;;;;;;;7.63;5.90;;;;;;;;;;4977489;28;20030;-70
2023/12/10 07:28:04;;;;;;;8.70;6.28;;;;;;;;;;4977045;28;20070;-70
2023/12/10 07:30:30;;;;;;;7.63;6.25;;;;;;;;;;4977403;28;20034;-69
2023/12/10 07:32:56;;;;;;;11.05;6.43;;;;;;;;;;4977441;28;20029;-69
2023/12/10 07:35:22;;;;;;;8.55;6.13;;;;;;;;;;4977053;28;20073;-70
2023/12/10 07:37:47;;;;;;;10.80;6.38;;;;;;;;;;4977018;28;20030;-70
2023/12/10 07:40:13;;;;;;;9.38;6.53;;;;;;;;;;4977262;28;20023;-69
2023/12/10 07:42:39;;;;;;;8.93;6.05;;;;;;;;;;4976911;28;20023;-69
2023/12/10 07:45:05;;;;;;;11.68;6.68;;;;;;;;;;4977377;28;20027;-69
2023/12/10 07:47:30;;;;;;;11.48;6.40;;;;;;;;;;4977298;28;20030;-70
2023/12/10 07:49:56;;;;;;;8.50;5.93;;;;;;;;;;4977052;28;20403;-70
2023/12/10 07:52:21;;;;;;;9.68;6.05;;;;;;;;;;4976982;28;20377;-70
2023/12/10 07:54:47;;;;;;;9.23;6.28;;;;;;;;;;4976696;28;20031;-69
2023/12/10 07:57:12;;;;;;;7.93;5.78;;;;;;;;;;4976838;28;20030;-69
2023/12/10 07:59:38;;;;;;;8.40;5.93;;;;;;;;;;4977013;28;20035;-67
2023/12/10 08:02:03;;;;;;;8.85;6.63;;;;;;;;;;4976674;28;20365;-68
2023/12/10 08:04:29;;;;;;;8.77;5.95;;;;;;;;;;4976555;28;20113;-68
2023/12/10 08:06:55;;;;;;;9.32;5.95;;;;;;;;;;4976812;28;20066;-69
2023/12/10 08:09:21;;;;;;;8.43;6.20;;;;;;;;;;4976581;28;20037;-69
2023/12/10 08:11:47;;;;;;;8.43;6.00;;;;;;;;;;4976375;28;20062;-69
2023/12/10 08:14:12;;;;;;;8.40;6.13;;;;;;;;;;4976320;28;20038;-69
2023/12/10 08:16:38;;;;;;;8.15;6.15;;;;;;;;;;4976403;28;20071;-69
2023/12/10 08:19:03;;;;;;;8.23;6.13;;;;;;;;;;4976245;28;20034;-69
2023/12/10 08:21:29;;;;;;;9.63;6.13;;;;;;;;;;4976327;28;20030;-69
2023/12/10 08:23:54;;;;;;;8.77;5.65;;;;;;;;;;4975895;28;20375;-70
2023/12/10 08:26:21;;;;;;;9.18;5.57;;;;;;;;;;4976408;28;20026;-69
2023/12/10 08:28:46;;;;;;;8.48;5.78;;;;;;;;;;4975941;28;20522;-69
2023/12/10 08:31:12;;;;;;;8.52;6.18;;;;;;;;;;4976013;28;20031;-69
2023/12/10 08:33:37;;;;;;;8.10;5.75;;;;;;;;;;4976351;28;20026;-70
2023/12/10 08:36:03;;;;;;;8.15;5.82;;;;;;;;;;4976063;28;20564;-69
2023/12/10 08:38:29;;;;;;;8.55;5.90;;;;;;;;;;4976136;28;20023;-69
2023/12/10 08:40:55;;;;;;;8.80;5.88;;;;;;;;;;4976416;28;20472;-68
2023/12/10 08:43:21;;;;;;;9.52;6.00;;;;;;;;;;4976388;28;20162;-69
2023/12/10 08:45:46;;;;;;;7.45;5.50;;;;;;;;;;4975997;28;20106;-68
2023/12/10 08:48:12;;;;;;;8.18;5.43;;;;;;;;;;4976334;28;20030;-69
2023/12/10 08:50:37;;;;;;;8.45;5.90;;;;;;;;;;4976018;28;20027;-69
2023/12/10 08:53:03;;;;;;;8.20;5.65;;;;;;;;;;4975736;28;20547;-69
2023/12/10 08:55:28;;;;;;;7.75;5.63;;;;;;;;;;4976038;28;20027;-69
2023/12/10 08:57:54;;;;;;;7.78;6.03;;;;;;;;;;4975600;28;20118;-68
2023/12/10 09:00:19;;;;;;;7.65;6.00;;;;;;;;;;4976109;28;20075;-69
2023/12/10 09:02:45;;;;;;;7.68;5.70;;;;;;;;;;4975755;28;20429;-69
2023/12/10 09:05:10;;;;;;;7.80;5.72;;;;;;;;;;4975810;28;20040;-69
2023/12/10 09:07:36;;;;;;;9.27;5.82;;;;;;;;;;4975622;28;20502;-69
2023/12/10 09:10:02;;;;;;;8.20;5.68;;;;;;;;;;4973877;28;20042;-69
2023/12/10 09:12:27;;;;;;;6.78;5.15;;;;;;;;;;4975136;28;20039;-68
2023/12/10 09:14:53;;;;;;;8.63;5.85;;;;;;;;;;4975210;28;20027;-68
2023/12/10 09:17:19;;;;;;;7.68;5.80;;;;;;;;;;4975346;28;20022;-68
2023/12/10 09:19:45;;;;;;;9.38;5.72;;;;;;;;;;4975340;28;20023;-69
2023/12/10 09:22:10;;;;;;;7.70;5.50;;;;;;;;;;4975062;28;20435;-69
2023/12/10 09:24:36;;;;;;;8.15;5.60;;;;;;;;;;4975598;28;20039;-69
2023/12/10 09:27:02;;;;;;;8.63;6.15;;;;;;;;;;4974973;28;20365;-68
2023/12/10 09:29:27;;;;;;;8.27;6.25;;;;;;;;;;4974992;28;20031;-68
2023/12/10 09:31:53;;;;;;;8.57;5.80;;;;;;;;;;4975449;28;20031;-68
2023/12/10 09:34:18;;;;;;;7.07;5.25;;;;;;;;;;4974857;28;20027;-68
2023/12/10 09:36:44;;;;;;;7.88;5.43;;;;;;;;;;4974975;28;20034;-69
2023/12/10 09:39:09;;;;;;;7.88;5.50;;;;;;;;;;4974889;28;20026;-68
2023/12/10 09:41:35;;;;;;;8.30;5.80;;;;;;;;;;4974713;28;20018;-70
2023/12/10 09:44:00;;;;;;;8.13;5.82;;;;;;;;;;4975066;28;20054;-68
2023/12/10 09:46:29;;;;;;;8.77;6.03;;;;;;;;;;4974879;28;20073;-69
2023/12/10 09:48:55;;;;;;;6.72;5.18;;;;;;;;;;4974338;28;20423;-68
2023/12/10 09:51:21;;;;;;;6.97;5.22;;;;;;;;;;4974489;28;20077;-69
2023/12/10 09:53:48;;;;;;;8.00;5.22;;;;;;;;;;4974278;28;20081;-68
2023/12/10 09:56:13;;;;;;;8.63;5.60;;;;;;;;;;4974598;28;20569;-69
2023/12/10 09:58:39;;;;;;;6.90;5.20;;;;;;;;;;4974379;28;20094;-71
2023/12/10 10:01:07;;;;;;;7.25;5.40;;;;;;;;;;4972160;28;20081;-70
2023/12/10 10:03:36;;;;;;;6.55;5.18;;;;;;;;;;4972020;28;20023;-69
2023/12/10 10:06:02;;;;;;;8.05;5.70;;;;;;;;;;4970692;28;20118;-70
2023/12/10 10:08:29;;;;;;;6.70;5.90;;;;;;;;;;4972088;28;20109;-68
2023/12/10 10:10:54;;;;;;;7.28;5.63;;;;;;;;;;4969327;28;20369;-69
2023/12/10 10:13:20;;;;;;;10.02;6.20;;;;;;;;;;4972783;28;20071;-69
2023/12/10 10:15:45;;;;;;;7.82;4.53;;;;;;;;;;4972998;28;20034;-68
2023/12/10 10:18:11;;;;;;;8.02;5.78;;;;;;;;;;4971710;28;20022;-69
2023/12/10 10:20:38;;;;;;;7.57;5.50;;;;;;;;;;4972356;28;20434;-70
2023/12/10 10:23:04;;;;;;;8.30;5.63;;;;;;;;;;4970948;28;20023;-69
2023/12/10 10:25:30;;;;;;;7.00;5.13;;;;;;;;;;4970511;28;20042;-69
2023/12/10 10:27:56;;;;;;;6.03;4.97;;;;;;;;;;4969372;28;20483;-69
2023/12/10 10:30:22;;;;;;;8.23;5.43;;;;;;;;;;4971245;28;20047;-69
2023/12/10 10:32:48;;;;;;;8.25;4.95;;;;;;;;;;4966664;28;20038;-67
2023/12/10 10:35:14;;;;;;;7.20;5.20;;;;;;;;;;4969246;28;20476;-65
2023/12/10 10:37:42;;;;;;;7.65;5.47;;;;;;;;;;4973346;28;20037;-65
2023/12/10 10:40:08;;;;;;;6.43;5.05;;;;;;;;;;4973825;28;20049;-63
2023/12/10 10:42:34;;;;;;;7.78;5.90;;;;;;;;;;4974025;28;20441;-65
2023/12/10 10:44:59;;;;;;;7.95;5.78;;;;;;;;;;4973521;28;20065;-68
2023/12/10 10:47:27;;;;;;;6.40;4.63;;;;;;;;;;4973996;28;20031;-64
2023/12/10 10:49:55;;;;;;;6.97;5.28;;;;;;;;;;4973751;28;20575;-65
2023/12/10 10:52:27;;;;;;;6.47;5.10;;;;;;;;;;4974095;28;20073;-65
2023/12/10 10:54:54;;;;;;;7.00;5.20;;;;;;;;;;4973949;28;20026;-64
2023/12/10 10:57:34;;;;;;;6.75;5.15;;;;;;;;;;4973850;28;20026;-64
2023/12/10 11:00:30;;;;;;;7.70;5.10;;;;;;;;;;4973620;28;20046;-64
2023/12/10 11:03:01;;;;;;;5.93;5.00;;;;;;;;;;4966486;28;20491;-65
2023/12/10 11:05:36;;;;;;;6.35;5.00;;;;;;;;;;4973820;28;20035;-64
2023/12/10 11:08:06;;;;;;;7.38;5.35;;;;;;;;;;4973883;28;20027;-64
2023/12/10 11:10:39;;;;;;;6.63;4.97;;;;;;;;;;4973464;28;20472;-64
2023/12/10 11:13:04;;;;;;;6.32;5.15;;;;;;;;;;4973468;28;20078;-65
2023/12/10 11:15:31;;;;;;;7.32;5.28;;;;;;;;;;4973503;28;20069;-65
2023/12/10 11:17:57;;;;;;;7.95;4.97;;;;;;;;;;4973369;28;20058;-65
2023/12/10 11:20:41;;;;;;;7.38;5.07;;;;;;;;;;4973573;28;20035;-65
2023/12/10 11:23:14;;;;;;;7.38;5.05;;;;;;;;;;4973710;28;20035;-65
2023/12/10 11:25:41;;;;;;;6.63;4.97;;;;;;;;;;4973678;28;20031;-65
2023/12/10 11:28:12;;;;;;;6.95;4.88;;;;;;;;;;4972125;28;20113;-65
2023/12/10 11:30:39;;;;;;;8.30;5.00;;;;;;;;;;4973517;28;20070;-65
2023/12/10 11:33:05;;;;;;;6.07;4.57;;;;;;;;;;4973360;28;20054;-65
2023/12/10 11:35:31;;;;;;;6.25;4.68;;;;;;;;;;4973533;28;20047;-66
2023/12/10 11:37:57;;;;;;;7.35;5.15;;;;;;;;;;4973363;28;20494;-65
2023/12/10 11:40:22;;;;;;;6.82;4.70;;;;;;;;;;4973245;28;20022;-69
2023/12/10 11:42:48;;;;;;;6.25;4.55;;;;;;;;;;4973474;28;20029;-65
2023/12/10 11:45:14;;;;;;;6.80;5.03;;;;;;;;;;4973489;28;20027;-69
2023/12/10 11:47:43;;;;;;;6.80;5.03;;;;;;;;;;4973434;28;20361;-65
2023/12/10 11:50:13;;;;;;;8.00;5.70;;;;;;;;;;4973134;28;20039;-68
2023/12/10 11:52:41;;;;;;;8.00;4.70;;;;;;;;;;4973345;28;20030;-65
2023/12/10 11:55:08;;;;;;;7.30;4.95;;;;;;;;;;4973412;28;20534;-68
2023/12/10 11:57:33;;;;;;;9.43;4.88;;;;;;;;;;4973184;28;20038;-65
2023/12/10 12:00:04;;;;;;;6.85;5.25;;;;;;;;;;4974684;28;20111;-70
2023/12/10 12:02:30;;;;;;;6.93;4.97;;;;;;;;;;4973005;28;20057;-67
2023/12/10 12:04:55;;;;;;;9.43;5.45;;;;;;;;;;4976331;28;20566;-65
2023/12/10 12:07:27;;;;;;;7.60;4.93;;;;;;;;;;4976929;28;20384;-65
2023/12/10 12:09:54;;;;;;;8.32;5.53;;;;;;;;;;4976382;28;20042;-65
2023/12/10 12:12:23;;;;;;;8.20;5.03;;;;;;;;;;4976446;28;20051;-65
2023/12/10 12:14:51;;;;;;;10.15;5.40;;;;;;;;;;4976561;28;20027;-65
2023/12/10 12:17:18;;;;;;;18.17;6.15;;;;;;;;;;4976249;28;20042;-68
2023/12/10 12:19:44;;;;;;;12.70;5.28;;;;;;;;;;4976405;28;20031;-66
2023/12/10 12:22:10;;;;;;;8.82;5.03;;;;;;;;;;4972922;28;20031;-65
2023/12/10 12:24:39;;;;;;;6.78;4.68;;;;;;;;;;4974081;28;20031;-66
2023/12/10 12:27:07;;;;;;;8.10;5.72;;;;;;;;;;4975981;28;20026;-66
2023/12/10 12:29:34;;;;;;;17.88;5.70;;;;;;;;;;4975951;28;20499;-66
2023/12/10 12:32:04;;;;;;;14.38;5.70;;;;;;;;;;4975990;28;20027;-65
2023/12/10 12:34:30;;;;;;;9.13;5.75;;;;;;;;;;4975735;28;20038;-68
2023/12/10 12:36:56;;;;;;;14.52;4.68;;;;;;;;;;4975918;28;20027;-67
2023/12/10 12:39:22;;;;;;;17.13;5.28;;;;;;;;;;4976157;28;20106;-65
2023/12/10 12:41:48;;;;;;;8.65;5.45;;;;;;;;;;4975886;28;20537;-65
2023/12/10 12:44:14;;;;;;;8.93;5.13;;;;;;;;;;4975792;28;20127;-69
2023/12/10 12:46:40;;;;;;;12.00;5.38;;;;;;;;;;4975720;28;20027;-68
2023/12/10 12:49:07;;;;;;;11.88;5.25;;;;;;;;;;4975589;28;20518;-71
2023/12/10 12:51:35;;;;;;;7.78;4.95;;;;;;;;;;4975513;28;20027;-69
2023/12/10 12:54:01;;;;;;;17.08;4.80;;;;;;;;;;4974072;28;20023;-69
2023/12/10 12:56:26;;;;;;;11.70;5.00;;;;;;;;;;4973162;28;20037;-69
2023/12/10 12:58:53;;;;;;;10.52;5.68;;;;;;;;;;4974353;28;20030;-68
2023/12/10 13:01:19;;;;;;;10.15;5.50;;;;;;;;;;4973677;28;20117;-68
2023/12/10 13:03:45;;;;;;;11.93;5.22;;;;;;;;;;4974251;28;20110;-68
2023/12/10 13:06:10;;;;;;;8.98;5.40;;;;;;;;;;4975260;28;20058;-69
2023/12/10 13:08:36;;;;;;;10.30;5.60;;;;;;;;;;4974499;28;20046;-68
2023/12/10 13:11:02;;;;;;;14.50;4.97;;;;;;;;;;4975085;28;20041;-69
2023/12/10 13:13:27;;;;;;;16.70;5.65;;;;;;;;;;4975553;28;20034;-68
2023/12/10 13:15:53;;;;;;;10.05;5.38;;;;;;;;;;4975499;28;20058;-68
2023/12/10 13:18:18;;;;;;;7.50;4.50;;;;;;;;;;4975229;28;20027;-68
2023/12/10 13:20:44;;;;;;;5.93;4.90;;;;;;;;;;4975136;28;20019;-68
2023/12/10 13:23:09;;;;;;;9.75;5.38;;;;;;;;;;4975082;28;20114;-68
2023/12/10 13:25:35;;;;;;;11.45;5.10;;;;;;;;;;4975080;28;20027;-68
2023/12/10 13:28:00;;;;;;;7.07;4.70;;;;;;;;;;4975158;28;20031;-68
2023/12/10 13:30:26;;;;;;;9.52;4.78;;;;;;;;;;4975269;28;20380;-69
2023/12/10 13:32:51;;;;;;;6.60;4.57;;;;;;;;;;4974898;28;20384;-68
2023/12/10 13:35:17;;;;;;;9.57;5.30;;;;;;;;;;4974905;28;20062;-68
2023/12/10 13:37:43;;;;;;;7.95;4.78;;;;;;;;;;4974834;28;20035;-69
2023/12/10 13:40:09;;;;;;;10.85;4.53;;;;;;;;;;4974746;28;20031;-68
2023/12/10 13:42:35;;;;;;;8.60;4.43;;;;;;;;;;4974957;28;20027;-68
2023/12/10 13:45:01;;;;;;;9.52;5.10;;;;;;;;;;4974902;28;20491;-68
2023/12/10 13:47:27;;;;;;;11.90;4.82;;;;;;;;;;4974673;28;20031;-68
2023/12/10 13:49:53;;;;;;;8.45;4.78;;;;;;;;;;4974507;28;20037;-68
2023/12/10 13:52:18;;;;;;;9.75;5.40;;;;;;;;;;4974872;28;20037;-68
2023/12/10 13:54:44;;;;;;;8.48;4.43;;;;;;;;;;4974454;28;20492;-68
2023/12/10 13:57:09;;;;;;;9.73;4.72;;;;;;;;;;4974520;28;20102;-68
2023/12/10 13:59:35;;;;;;;7.60;4.63;;;;;;;;;;4974481;28;20038;-68
2023/12/10 14:02:00;;;;;;;8.95;5.10;;;;;;;;;;4974660;28;20030;-69
2023/12/10 14:04:26;;;;;;;12.07;5.22;;;;;;;;;;4974466;28;20031;-68
2023/12/10 14:06:51;;;;;;;6.72;4.45;;;;;;;;;;4974305;28;20023;-68
2023/12/10 14:09:17;;;;;;;5.82;4.63;;;;;;;;;;4974210;28;20031;-68
2023/12/10 14:11:43;;;;;;;11.15;4.50;;;;;;;;;;4973954;28;20050;-68
2023/12/10 14:14:09;;;;;;;7.28;4.75;;;;;;;;;;4972966;28;20042;-68
2023/12/10 14:16:34;;;;;;;8.77;4.65;;;;;;;;;;4974151;28;20035;-69
2023/12/10 14:19:00;;;;;;;5.85;4.50;;;;;;;;;;4974383;28;20023;-69
2023/12/10 14:21:27;;;;;;;7.88;4.57;;;;;;;;;;4973463;28;20053;-69
2023/12/10 14:23:52;;;;;;;11.50;4.55;;;;;;;;;;4974447;28;20023;-68
2023/12/10 14:26:18;;;;;;;8.55;4.95;;;;;;;;;;4972849;28;20168;-69
2023/12/10 14:28:43;;;;;;;6.20;4.47;;;;;;;;;;4973917;28;20027;-69
2023/12/10 14:31:09;;;;;;;7.25;4.85;;;;;;;;;;4974017;28;20035;-68